Decoded Metar for WIII (JAKARTA in INDONESIA) (IATA:CGK) | Meteo·Mobile Aviation Weather
aviador You're here:

WIII Decoded Metar

JAKARTA in INDONESIA
Report Time2018-09-21 03:30:00
UTC Time2018-09-21 03:44:14
Flight Rules mvfr MVFR
WindVRB at 04 kt
Visibility7000 m
Phenomena:N/A
Clouds:Scattered 020 Hf
Expected CloudBase > 2,400 ft AGL from Temp-Dew spread
CeilingNone
Temp29°C (ISA +14)
Dew Point23°C (70% RH)
Heat Index32.7°C
QNH1013 hPa
Density Alt2,008 ft
Elevation26 ft
Report Wrong Elevation
Raw Report
METAR WIII 210330Z VRB04KT 7000 SCT020 29/23 Q1013 NOSIG=

Extra information for WIII:More info

Metar Taf Metar & Taf Last 4 Metars F.Rules Stats Wind Profile Meteogram Temp Stats Airport Information Weather charts Add Link Nearby VenuesMetar ALERT Operation Metar Decoded Social comments